Capitol Logistics 202


KIAD
Washington Dulles International Airport
Dulles, Virginia, US
KMIA
Miami International Airport
Miami, Florida, US

Activity Log

Date Flight Route Aircraft Duration
05/13/2020 CPX202 KIAD/19C JDUBB3 MELTN GARIC Y307 JRDAN Y291 JENKS AR22 JORAY HILEY7 KMIA/I09 B763 2h 27m
04/16/2020 CPX202 JDUBB3 MELTN GARIC Y307 JRDAN Y291 JENKS AR22 JORAY HILEY7 B763 2h 27m
03/26/2020 CPX202 JCOBY3 COLIN J61 HUBBS KEMPR WETRO DIW AR22 JORAY HILEY7 B763 2h 31m
03/04/2020 CPX202 JDUBB2 SBV RAYVO Q87 TAALN Q83 JEVED Q97 WOPNR Q93 KENLL OMN HILEY7 B763 2h 31m
12/30/2019 CPX202 JDUBB2 GSO J75 CAE J51 SAV J103 OMN HILEY7 B763 2h 37m
11/06/2019 CPX202 JDUBB2 SBV RAYVO Q87 TAALN Q83 JEVED Q97 WOPNR Q93 KENLL OMN HILEY7 B763 2h 29m
10/30/2019 CPX412 JDUBB2 GSO J75 CAE J51 SAV J103 OMN HILEY7 B752 2h 37m
08/11/2019 CPX412 JDUBB2 GSO SAV J103 OMN J79 TRV ANNEY4 B752 2h 10m
06/22/2019 CPX202 JDUBB2 GSO J75 CAE J51 SAV J103 OMN HILEY7 B763 2h 20m
03/02/2019 CPX202 JCOBY3 COLIN J61 HUBBS KEMPR WETRO DIW AR22 JORAY HILEY7 B763 2h 23m
01/31/2019 CPX412 JCOBY3 COLIN J61 HUBBS KEMPR WETRO DIW AR22 JORAY HILEY7 B752 2h 45m
01/14/2019 CPX202 JDUBB2 GSO J75 CAE J51 SAV J103 OMN HILEY7 B763 2h 35m
12/14/2018 CPX312 JCOBY3 COLIN J61 HUBBS KEMPR WETRO DIW AR22 JORAY HILEY7 B752 2h 29m
12/12/2018 CPX122 JCOBY3 COLIN J61 HUBBS KEMPR WETRO DIW AR22 JORAY HILEY7 B763 2h 22m
12/07/2018 CPX312 JCOBY3 COLIN J61 HUBBS KEMPR WETRO DIW AR22 JORAY HILEY7 B752 2h 33m
12/06/2018 CPX112 JDUBB2 GSO J75 CAE J51 SAV J103 OMN HILEY7 MD11 2h 20m
11/29/2018 CPX312 JCOBY3 COLIN J61 HUBBS KEMPR WETRO DIW AR22 JORAY HILEY7 B752 2h 08m
11/28/2018 CPX122 JDUBB2 GSO J75 CAE J51 SAV J103 OMN HILEY7 B763 2h 29m
11/12/2018 CPX122 JDUBB2 GSO J75 CAE J51 SAV J103 OMN HILEY7 B763 2h 41m

Route Details

Aircraft Information
Primary: Boeing 767-300BDSF
Backup: Not Available
Route Data
Distance: 894nm
Sched. Duration: 2h 29m
Avg. Duration: 2h 28m (-1m)
Times Flown: 19
Recm'd Route: JDUBB2 GSO J75 CAE J51 SAV J103 OMN HILEY7
Planned Altitude: 34,000ft
Origin Wx: KIAD 250952Z 02008KT 10SM -RA BKN047 OVC065 10/03 A3014 RMK AO2 RAB24 SLP207 P0000 T01000033
Dest. Wx: KMIA 250953Z 09004KT 10SM -RA FEW018 FEW033 BKN075 OVC130 24/24 A2985 RMK AO2 LTG DSNT E SLP109 P0002 T02440239 $
Notes:

Financial History
Total Freight: 1,566,648lbs
Average Load: 82,455lbs/flt
Fuel Used: 465,929lbs
Avg. Fuel Used: 24,523lbs/flt
Fuel Expense: $610,862
Avg. Fuel Expense: $32,151
Avg. Fuel Cost: $1.31/lbs
Total Gross Income: $2,017,718
Pilot Pay: $3,171
Total Expenses: $216,084
Total Revenue: $1,180,646
Average Revenue: $106,195.69